LFLN 210400Z AUTO 35004KT CAVOK M01/M02 Q1031

ElémentsDécodage
LFLN Station météo située sur l'aérodrome de SAINT-YAN
210400Z émis le 21 du mois à 04h00 UTC
AUTO Bulletin édité par un automate
35004KT vent du 350°, 04 noeuds
CAVOK Ceiling And Visibility OK
- Visibilité de 10 Km ou plus
- Pas de nuage au-dessous de 1500m ou au-dessous de l'altitude minimale du secteur la plus élevée (si>1500m) et absence de CB
- pas de temps présent significatif
M01/M02 température -01°C, point de rosée -02°C
 soit une humidité relative de 93%
Q1031 la pression au niveau de la mer (QNH) est de 1031 hPa